createdAt,value
2023-01-17T00:01:23.742Z,78.04
2023-01-17T00:02:55.349Z,77.59
2023-01-17T00:04:47.176Z,77.60
2023-01-17T00:06:36.905Z,77.12
2023-01-17T00:08:29.750Z,77.34
2023-01-17T00:10:04.438Z,77.16
2023-01-17T00:11:35.912Z,76.91
2023-01-17T00:13:07.505Z,77.19
2023-01-17T00:14:38.974Z,77.43
2023-01-17T00:16:10.488Z,77.38
2023-01-17T00:17:42.130Z,77.13
2023-01-17T00:19:32.461Z,77.24
2023-01-17T00:21:24.300Z,77.11
2023-01-17T00:23:14.162Z,76.99
2023-01-17T00:25:04.037Z,76.99
2023-01-17T00:26:35.574Z,76.92
2023-01-17T00:28:07.245Z,76.62
2023-01-17T00:29:38.736Z,76.73
2023-01-17T00:31:11.500Z,76.25
2023-01-17T00:32:42.980Z,75.80
2023-01-17T00:34:14.429Z,75.95
2023-01-17T00:35:45.876Z,75.82
2023-01-17T00:37:18.665Z,76.32
2023-01-17T00:38:50.101Z,76.11
2023-01-17T00:40:21.526Z,76.35
2023-01-17T00:41:53.011Z,76.37
2023-01-17T00:43:43.135Z,76.58
2023-01-17T00:45:33.017Z,77.06
2023-01-17T00:47:23.056Z,77.57
2023-01-17T00:49:13.056Z,77.91
2023-01-17T00:51:03.018Z,77.95
2023-01-17T00:52:54.266Z,77.63
2023-01-17T00:54:44.153Z,77.77
2023-01-17T00:56:34.046Z,77.91
2023-01-17T00:58:24.535Z,77.92
2023-01-17T01:00:14.591Z,77.70
2023-01-17T01:02:04.859Z,77.66
2023-01-17T01:03:55.130Z,77.34
2023-01-17T01:05:45.321Z,77.37
2023-01-17T01:07:35.171Z,77.48
2023-01-17T01:09:26.306Z,77.73
2023-01-17T01:11:16.488Z,77.40
2023-01-17T01:13:06.197Z,77.28
2023-01-17T01:14:56.016Z,76.97
2023-01-17T01:16:45.840Z,77.61
2023-01-17T01:18:36.364Z,77.70
2023-01-17T01:20:27.303Z,77.20
2023-01-17T01:22:17.793Z,77.68
2023-01-17T01:24:08.131Z,77.44
2023-01-17T01:25:59.214Z,77.97
2023-01-17T01:27:49.157Z,77.76
2023-01-17T01:29:39.223Z,77.87
2023-01-17T01:31:29.165Z,78.37
2023-01-17T01:33:18.751Z,78.65
2023-01-17T01:34:50.223Z,79.19
2023-01-17T01:36:21.862Z,79.10
2023-01-17T01:37:53.368Z,78.72
2023-01-17T01:39:24.813Z,78.30
2023-01-17T01:40:57.610Z,78.63
2023-01-17T01:42:29.097Z,78.51
2023-01-17T01:44:00.629Z,78.23
2023-01-17T01:45:32.785Z,78.20
2023-01-17T01:47:04.318Z,78.12
2023-01-17T01:48:39.348Z,77.42
2023-01-17T01:50:12.248Z,77.66
2023-01-17T01:51:47.799Z,77.18
2023-01-17T01:53:20.279Z,77.18
2023-01-17T01:54:53.563Z,77.29
2023-01-17T01:56:26.903Z,77.01
2023-01-17T01:58:00.185Z,76.46
2023-01-17T01:59:32.544Z,76.46
2023-01-17T02:01:05.084Z,75.79
2023-01-17T02:02:36.621Z,75.80
2023-01-17T02:04:11.464Z,75.63
2023-01-17T02:05:43.706Z,75.23
2023-01-17T02:07:17.122Z,74.52
2023-01-17T02:08:48.985Z,75.00
2023-01-17T02:10:20.471Z,74.82
2023-01-17T02:11:53.735Z,74.36
2023-01-17T02:13:25.447Z,74.25
2023-01-17T02:14:57.250Z,73.79
2023-01-17T02:16:34.620Z,74.08
2023-01-17T02:18:13.531Z,74.18
2023-01-17T02:20:00.820Z,73.70
2023-01-17T02:21:36.552Z,73.31
2023-01-17T02:23:31.889Z,72.98
2023-01-17T02:25:14.935Z,73.18
2023-01-17T02:27:07.172Z,72.98
2023-01-17T02:28:46.375Z,72.63
2023-01-17T02:30:31.751Z,72.22
2023-01-17T02:32:05.833Z,72.80
2023-01-17T02:33:40.394Z,72.72
2023-01-17T02:35:15.973Z,72.53
2023-01-17T02:36:51.769Z,72.66
2023-01-17T02:38:31.515Z,72.76
2023-01-17T02:40:04.849Z,72.76
2023-01-17T02:41:38.632Z,72.76
2023-01-17T02:43:11.840Z,72.75
2023-01-17T02:44:43.944Z,72.65
2023-01-17T02:46:16.883Z,72.33
2023-01-17T02:47:48.389Z,72.45
2023-01-17T02:49:21.351Z,72.29
2023-01-17T02:51:03.023Z,72.15
2023-01-17T02:52:41.531Z,72.26
2023-01-17T02:54:23.757Z,72.78
2023-01-17T02:55:59.891Z,73.13
2023-01-17T02:57:50.511Z,72.58
2023-01-17T02:59:33.265Z,72.79
2023-01-17T03:01:09.916Z,72.25
2023-01-17T03:02:47.673Z,72.34
2023-01-17T03:04:21.587Z,72.23
2023-01-17T03:05:54.963Z,72.65
2023-01-17T03:07:27.929Z,72.71
2023-01-17T03:08:59.428Z,72.61
2023-01-17T03:10:31.548Z,72.47
2023-01-17T03:12:03.661Z,72.80
2023-01-17T03:13:35.238Z,72.64
2023-01-17T03:15:09.114Z,72.72
2023-01-17T03:16:40.807Z,73.31
2023-01-17T03:18:14.570Z,73.47
2023-01-17T03:19:46.024Z,73.72
2023-01-17T03:21:17.597Z,73.18
2023-01-17T03:22:49.053Z,73.17
2023-01-17T03:24:20.538Z,72.82
2023-01-17T03:25:51.987Z,72.72
2023-01-17T03:27:23.452Z,73.16
2023-01-17T03:28:54.912Z,72.82
2023-01-17T03:30:26.483Z,73.10
2023-01-17T03:31:58.279Z,73.54
2023-01-17T03:33:31.046Z,72.85
2023-01-17T03:35:02.550Z,73.10
2023-01-17T03:36:34.056Z,72.94
2023-01-17T03:38:05.514Z,72.94
2023-01-17T03:39:37.013Z,72.56
2023-01-17T03:41:08.590Z,72.46
2023-01-17T03:42:40.079Z,72.81
2023-01-17T03:44:11.542Z,72.02
2023-01-17T03:45:43.028Z,72.32
2023-01-17T03:47:14.594Z,72.61
2023-01-17T03:48:47.456Z,71.95
2023-01-17T03:50:18.941Z,72.17
2023-01-17T03:51:50.364Z,72.08
2023-01-17T03:53:21.864Z,72.37
2023-01-17T03:54:54.544Z,72.24
2023-01-17T03:56:25.989Z,72.42
2023-01-17T03:57:57.435Z,72.18
2023-01-17T03:59:28.914Z,72.68
2023-01-17T04:01:00.456Z,71.91
2023-01-17T04:02:31.976Z,72.24
2023-01-17T04:04:04.959Z,71.98
2023-01-17T04:05:36.482Z,71.75
2023-01-17T04:07:07.969Z,71.95
2023-01-17T04:08:39.501Z,71.89
2023-01-17T04:10:11.199Z,72.13
2023-01-17T04:11:42.662Z,71.72
2023-01-17T04:13:14.837Z,72.08
2023-01-17T04:14:46.303Z,72.33
2023-01-17T04:16:18.185Z,72.47
2023-01-17T04:17:49.823Z,72.60
2023-01-17T04:19:22.736Z,72.44
2023-01-17T04:20:54.221Z,72.53
2023-01-17T04:22:25.707Z,72.14
2023-01-17T04:23:57.148Z,72.05
2023-01-17T04:25:30.466Z,72.14
2023-01-17T04:27:03.559Z,71.47
2023-01-17T04:28:35.046Z,71.90
2023-01-17T04:30:06.891Z,72.26
2023-01-17T04:31:38.425Z,72.73
2023-01-17T04:33:09.884Z,72.23
2023-01-17T04:34:42.784Z,72.26
2023-01-17T04:36:14.243Z,72.77
2023-01-17T04:37:45.719Z,72.72
2023-01-17T04:39:17.209Z,72.26
2023-01-17T04:40:48.718Z,72.63
2023-01-17T04:42:20.239Z,72.60
2023-01-17T04:43:51.718Z,72.73
2023-01-17T04:45:23.341Z,72.47
2023-01-17T04:46:54.775Z,71.92
2023-01-17T04:48:27.123Z,72.02
2023-01-17T04:50:00.004Z,72.07
2023-01-17T04:51:31.504Z,71.64
2023-01-17T04:53:02.995Z,72.21
2023-01-17T04:54:34.488Z,72.65
2023-01-17T04:56:06.182Z,72.41
2023-01-17T04:57:37.638Z,72.13
2023-01-17T04:59:09.137Z,72.37
2023-01-17T05:00:40.650Z,72.63
2023-01-17T05:02:12.465Z,72.82
2023-01-17T05:03:43.945Z,73.02
2023-01-17T05:05:16.907Z,73.05
2023-01-17T05:06:48.347Z,72.72
2023-01-17T05:08:22.346Z,73.85
2023-01-17T05:09:53.810Z,73.69
2023-01-17T05:11:25.342Z,73.55
2023-01-17T05:12:57.105Z,73.87
2023-01-17T05:14:28.759Z,73.76
2023-01-17T05:16:00.368Z,73.57
2023-01-17T05:17:31.896Z,73.54
2023-01-17T05:19:03.422Z,73.95
2023-01-17T05:20:36.677Z,73.53
2023-01-17T05:22:15.184Z,73.92
2023-01-17T05:23:46.862Z,73.69
2023-01-17T05:25:18.323Z,74.18
2023-01-17T05:26:54.590Z,73.88
2023-01-17T05:28:26.184Z,74.32
2023-01-17T05:29:57.619Z,73.75
2023-01-17T05:31:29.095Z,73.53
2023-01-17T05:33:00.693Z,73.43
2023-01-17T05:34:32.398Z,73.75
2023-01-17T05:36:05.546Z,73.45
2023-01-17T05:37:37.053Z,73.44
2023-01-17T05:39:08.701Z,73.30
2023-01-17T05:40:40.161Z,73.08
2023-01-17T05:42:11.620Z,73.16
2023-01-17T05:43:43.104Z,73.00
2023-01-17T05:45:16.836Z,72.66
2023-01-17T05:46:48.324Z,72.39
2023-01-17T05:48:20.533Z,72.59
2023-01-17T05:49:51.979Z,72.53
2023-01-17T05:51:24.818Z,72.05
2023-01-17T05:52:57.277Z,72.68
2023-01-17T05:54:28.893Z,72.28
2023-01-17T05:56:00.363Z,72.37
2023-01-17T05:57:31.874Z,72.48
2023-01-17T05:59:03.361Z,72.49
2023-01-17T06:00:34.836Z,72.84
2023-01-17T06:02:06.348Z,72.76
2023-01-17T06:03:37.783Z,72.58
2023-01-17T06:05:09.611Z,72.75
2023-01-17T06:06:42.532Z,72.18
2023-01-17T06:08:14.101Z,72.20
2023-01-17T06:09:45.580Z,72.71
2023-01-17T06:11:18.497Z,72.76
2023-01-17T06:12:50.233Z,72.94
2023-01-17T06:14:21.739Z,73.07
2023-01-17T06:15:53.327Z,72.49
2023-01-17T06:17:24.866Z,72.66
2023-01-17T06:18:56.362Z,73.09
2023-01-17T06:20:28.504Z,72.38
2023-01-17T06:22:01.632Z,72.62
2023-01-17T06:23:33.248Z,72.45
2023-01-17T06:25:05.159Z,71.67
2023-01-17T06:26:36.666Z,71.86
2023-01-17T06:28:09.904Z,71.55
2023-01-17T06:29:41.857Z,71.94
2023-01-17T06:31:13.500Z,72.17
2023-01-17T06:32:44.940Z,71.70
2023-01-17T06:34:16.431Z,71.82
2023-01-17T06:35:48.833Z,71.38
2023-01-17T06:37:21.729Z,72.11
2023-01-17T06:38:53.314Z,71.85
2023-01-17T06:40:24.873Z,71.98
2023-01-17T06:41:56.565Z,71.77
2023-01-17T06:43:28.247Z,71.48
2023-01-17T06:44:59.729Z,71.81
2023-01-17T06:46:31.268Z,71.65
2023-01-17T06:48:04.108Z,71.07
2023-01-17T06:49:35.747Z,70.90
2023-01-17T06:51:07.245Z,71.30
2023-01-17T06:52:40.160Z,71.82
2023-01-17T06:54:11.805Z,71.59
2023-01-17T06:55:43.680Z,71.43
2023-01-17T06:57:15.170Z,71.42
2023-01-17T06:58:48.558Z,71.50
2023-01-17T07:00:20.277Z,70.84
2023-01-17T07:01:52.410Z,70.61
2023-01-17T07:03:24.766Z,70.06
2023-01-17T07:04:56.402Z,70.81
2023-01-17T07:06:28.850Z,70.99
2023-01-17T07:08:01.986Z,71.39
2023-01-17T07:09:33.713Z,71.65
2023-01-17T07:11:05.937Z,71.45
2023-01-17T07:12:37.477Z,71.02
2023-01-17T07:14:11.892Z,70.78
2023-01-17T07:15:43.629Z,70.72
2023-01-17T07:17:15.098Z,70.89
2023-01-17T07:18:46.570Z,70.42
2023-01-17T07:20:18.042Z,70.05
2023-01-17T07:21:50.545Z,70.35
2023-01-17T07:23:24.214Z,70.14
2023-01-17T07:24:58.540Z,70.81
2023-01-17T07:26:30.235Z,70.56
2023-01-17T07:28:01.739Z,70.99
2023-01-17T07:29:33.216Z,70.92
2023-01-17T07:31:05.779Z,70.40
2023-01-17T07:32:37.363Z,70.48
2023-01-17T07:34:08.848Z,70.88
2023-01-17T07:35:40.883Z,70.12
2023-01-17T07:37:15.023Z,70.88
2023-01-17T07:38:48.108Z,70.36
2023-01-17T07:40:20.523Z,70.46
2023-01-17T07:41:52.125Z,70.54
2023-01-17T07:43:24.263Z,70.11
2023-01-17T07:44:55.724Z,70.51
2023-01-17T07:46:27.347Z,70.46
2023-01-17T07:47:58.860Z,70.71
2023-01-17T07:49:30.330Z,70.81
2023-01-17T07:51:01.828Z,70.29
2023-01-17T07:52:33.289Z,70.53
2023-01-17T07:54:06.173Z,70.18
2023-01-17T07:55:37.758Z,70.77
2023-01-17T07:57:11.197Z,70.89
2023-01-17T07:58:42.911Z,70.07
2023-01-17T08:00:14.652Z,69.68
2023-01-17T08:01:46.259Z,69.51
2023-01-17T08:03:18.102Z,70.08
2023-01-17T08:04:49.917Z,70.21
2023-01-17T08:06:22.439Z,70.20
2023-01-17T08:07:54.334Z,70.03
2023-01-17T08:09:27.142Z,69.82
2023-01-17T08:10:58.783Z,69.99
2023-01-17T08:12:30.245Z,70.45
2023-01-17T08:14:01.793Z,70.48
2023-01-17T08:15:33.276Z,70.78
2023-01-17T08:17:05.633Z,70.80
2023-01-17T08:18:37.586Z,70.09
2023-01-17T08:20:09.721Z,70.49
2023-01-17T08:21:41.307Z,70.72
2023-01-17T08:23:12.857Z,71.09
2023-01-17T08:24:45.677Z,71.16
2023-01-17T08:26:22.195Z,71.18
2023-01-17T08:27:56.892Z,70.74
2023-01-17T08:29:29.272Z,71.08
2023-01-17T08:31:06.302Z,70.42
2023-01-17T08:32:40.772Z,70.53
2023-01-17T08:34:14.082Z,70.60
2023-01-17T08:35:50.999Z,70.67
2023-01-17T08:37:22.788Z,69.85
2023-01-17T08:38:55.140Z,69.91
2023-01-17T08:40:28.104Z,69.99
2023-01-17T08:41:59.590Z,70.19
2023-01-17T08:43:31.064Z,70.12
2023-01-17T08:45:02.933Z,69.79
2023-01-17T08:46:34.446Z,69.81
2023-01-17T08:48:06.055Z,70.02
2023-01-17T08:49:37.632Z,70.08
2023-01-17T08:51:09.160Z,70.58
2023-01-17T08:52:40.711Z,69.96
2023-01-17T08:54:14.589Z,70.12
2023-01-17T08:55:47.486Z,69.25
2023-01-17T08:57:19.359Z,68.90
2023-01-17T08:58:50.822Z,68.72
2023-01-17T09:00:22.479Z,68.94
2023-01-17T09:01:55.376Z,69.20
2023-01-17T09:03:26.963Z,69.42
2023-01-17T09:04:58.438Z,69.47
2023-01-17T09:06:29.981Z,69.30
2023-01-17T09:08:01.493Z,69.72
2023-01-17T09:09:32.971Z,69.27
2023-01-17T09:11:06.280Z,69.56
2023-01-17T09:12:38.880Z,69.67
2023-01-17T09:14:11.820Z,69.01
2023-01-17T09:15:43.416Z,69.59
2023-01-17T09:17:15.321Z,69.61
2023-01-17T09:18:46.803Z,69.09
2023-01-17T09:20:18.448Z,69.44
2023-01-17T09:21:49.947Z,69.49
2023-01-17T09:23:21.631Z,69.00
2023-01-17T09:24:53.286Z,69.24
2023-01-17T09:26:26.732Z,69.59
2023-01-17T09:27:58.285Z,69.15
2023-01-17T09:29:29.801Z,68.93
2023-01-17T09:31:05.872Z,68.74
2023-01-17T09:32:39.197Z,68.71
2023-01-17T09:34:10.845Z,68.53
2023-01-17T09:35:42.363Z,68.83
2023-01-17T09:37:13.940Z,68.34
2023-01-17T09:38:45.589Z,67.85
2023-01-17T09:40:19.464Z,67.34
2023-01-17T09:41:59.423Z,66.97
2023-01-17T09:43:36.264Z,66.92
2023-01-17T09:45:12.284Z,67.25
2023-01-17T09:46:45.740Z,67.50
2023-01-17T09:48:21.527Z,67.54
2023-01-17T09:49:56.255Z,67.28
2023-01-17T09:51:27.910Z,67.06
2023-01-17T09:53:01.321Z,66.67
2023-01-17T09:54:34.161Z,66.34
2023-01-17T09:56:09.184Z,65.71
2023-01-17T09:57:46.792Z,65.71
2023-01-17T09:59:33.180Z,65.70
2023-01-17T10:01:12.992Z,65.88
2023-01-17T10:02:50.803Z,65.91
2023-01-17T10:04:38.163Z,65.83
2023-01-17T10:06:34.561Z,65.98
2023-01-17T10:08:14.273Z,64.87
2023-01-17T10:09:54.831Z,64.67
2023-01-17T10:11:34.557Z,64.91
2023-01-17T10:13:14.201Z,64.82
2023-01-17T10:14:52.559Z,65.13
2023-01-17T10:16:32.426Z,64.71
2023-01-17T10:18:28.760Z,64.35
2023-01-17T10:20:10.336Z,64.70
2023-01-17T10:21:51.070Z,64.89
2023-01-17T10:23:40.422Z,64.47
2023-01-17T10:25:18.671Z,64.53
2023-01-17T10:26:52.050Z,64.65
2023-01-17T10:28:26.816Z,64.94
2023-01-17T10:29:59.288Z,64.65
2023-01-17T10:31:34.601Z,63.93
2023-01-17T10:33:12.613Z,63.79
2023-01-17T10:34:47.436Z,64.29
2023-01-17T10:36:20.598Z,63.96
2023-01-17T10:37:56.740Z,64.24
2023-01-17T10:39:29.347Z,64.42
2023-01-17T10:41:04.699Z,64.18
2023-01-17T10:42:40.136Z,63.88
2023-01-17T10:44:18.486Z,64.06
2023-01-17T10:45:52.849Z,63.75
2023-01-17T10:47:25.011Z,63.12
2023-01-17T10:48:57.096Z,63.33
2023-01-17T10:50:28.893Z,62.61
2023-01-17T10:52:12.115Z,62.91
2023-01-17T10:53:50.715Z,62.53
2023-01-17T10:55:28.021Z,62.30
2023-01-17T10:56:59.548Z,63.09
2023-01-17T10:58:31.603Z,63.34
2023-01-17T11:00:17.924Z,62.92
2023-01-17T11:01:51.205Z,61.95
2023-01-17T11:03:24.839Z,61.53
2023-01-17T11:05:02.531Z,61.86
2023-01-17T11:06:34.124Z,61.82
2023-01-17T11:08:06.553Z,61.41
2023-01-17T11:09:39.273Z,61.73
2023-01-17T11:11:10.783Z,62.54
2023-01-17T11:12:44.939Z,62.85
2023-01-17T11:14:18.639Z,62.82
2023-01-17T11:15:52.565Z,62.68
2023-01-17T11:17:24.670Z,61.99
2023-01-17T11:19:06.989Z,61.96
2023-01-17T11:20:39.707Z,61.81
2023-01-17T11:22:13.929Z,62.00
2023-01-17T11:23:46.731Z,62.06
2023-01-17T11:25:21.963Z,61.65
2023-01-17T11:26:55.985Z,61.13
2023-01-17T11:28:30.310Z,60.72
2023-01-17T11:30:03.326Z,60.71
2023-01-17T11:31:36.188Z,60.77
2023-01-17T11:33:26.595Z,60.68
2023-01-17T11:35:17.057Z,60.64
2023-01-17T11:36:49.958Z,60.21
2023-01-17T11:38:24.402Z,61.07
2023-01-17T11:40:06.211Z,61.04
2023-01-17T11:41:38.873Z,60.69
2023-01-17T11:43:28.313Z,59.93
2023-01-17T11:45:22.576Z,58.94
2023-01-17T11:47:15.053Z,59.41
2023-01-17T11:48:50.999Z,59.53
2023-01-17T11:50:23.708Z,59.30
2023-01-17T11:51:56.340Z,59.62
2023-01-17T11:53:29.276Z,59.71
2023-01-17T11:55:00.780Z,59.69
2023-01-17T11:56:33.387Z,59.40
2023-01-17T11:58:04.951Z,58.84
2023-01-17T11:59:39.755Z,59.07
2023-01-17T12:01:23.529Z,58.91
2023-01-17T12:03:10.058Z,58.50
2023-01-17T12:04:43.000Z,58.00
2023-01-17T12:06:19.434Z,58.00
2023-01-17T12:07:53.108Z,57.42
2023-01-17T12:09:28.603Z,57.25
2023-01-17T12:11:04.448Z,57.63
2023-01-17T12:13:00.514Z,57.39
2023-01-17T12:14:38.031Z,57.55
2023-01-17T12:16:31.457Z,57.56
2023-01-17T12:18:15.524Z,57.69
2023-01-17T12:19:55.173Z,57.58
2023-01-17T12:21:34.645Z,56.93
2023-01-17T12:23:16.145Z,57.53
2023-01-17T12:24:58.915Z,56.86
2023-01-17T12:26:34.843Z,57.32
2023-01-17T12:28:14.384Z,57.24
2023-01-17T12:29:52.567Z,57.84
2023-01-17T12:31:29.445Z,57.67
2023-01-17T12:33:19.076Z,57.22
2023-01-17T12:34:54.060Z,56.99
2023-01-17T12:36:33.045Z,56.98
2023-01-17T12:38:08.915Z,57.80
2023-01-17T12:39:41.840Z,57.23
2023-01-17T12:41:18.694Z,57.69
2023-01-17T12:42:53.294Z,56.84
2023-01-17T12:44:33.244Z,56.25
2023-01-17T12:46:07.494Z,56.09
2023-01-17T12:47:42.837Z,56.11
2023-01-17T12:49:21.183Z,56.13
2023-01-17T12:50:55.606Z,56.63
2023-01-17T12:52:37.239Z,56.32
2023-01-17T12:54:14.927Z,56.37
2023-01-17T12:55:51.722Z,56.85
2023-01-17T12:57:26.547Z,57.01
2023-01-17T12:59:02.839Z,56.33
2023-01-17T13:00:38.301Z,56.58
2023-01-17T13:02:15.757Z,56.38
2023-01-17T13:03:52.013Z,56.53
2023-01-17T13:05:27.068Z,56.40
2023-01-17T13:07:06.357Z,56.21
2023-01-17T13:08:41.329Z,55.82
2023-01-17T13:10:20.679Z,56.49
2023-01-17T13:11:55.315Z,56.65
2023-01-17T13:13:27.577Z,56.49
2023-01-17T13:14:59.634Z,56.29
2023-01-17T13:16:35.345Z,55.93
2023-01-17T13:18:09.564Z,55.61
2023-01-17T13:19:44.583Z,55.67
2023-01-17T13:21:32.107Z,55.10
2023-01-17T13:23:09.784Z,54.66
2023-01-17T13:24:44.959Z,54.14
2023-01-17T13:26:24.940Z,54.41
2023-01-17T13:28:02.945Z,54.96
2023-01-17T13:29:40.342Z,54.70
2023-01-17T13:31:21.713Z,53.97
2023-01-17T13:33:06.956Z,53.86
2023-01-17T13:34:53.328Z,54.04
2023-01-17T13:36:42.957Z,54.56
2023-01-17T13:38:31.175Z,54.81
2023-01-17T13:40:18.751Z,55.89
2023-01-17T13:41:51.227Z,55.22
2023-01-17T13:43:25.993Z,55.27
2023-01-17T13:44:58.100Z,55.14
2023-01-17T13:46:29.979Z,54.94
2023-01-17T13:48:20.288Z,54.78
2023-01-17T13:49:56.272Z,54.41
2023-01-17T13:51:49.122Z,54.65
2023-01-17T13:53:39.055Z,54.01
2023-01-17T13:55:27.932Z,54.14
2023-01-17T13:57:18.292Z,53.97
2023-01-17T13:59:02.513Z,54.80
2023-01-17T14:00:57.854Z,54.66
2023-01-17T14:02:36.217Z,53.50
2023-01-17T14:04:08.607Z,54.30
2023-01-17T14:05:47.454Z,53.49
2023-01-17T14:07:26.000Z,53.44
2023-01-17T14:09:00.741Z,54.23
2023-01-17T14:10:37.272Z,54.46
2023-01-17T14:12:25.988Z,53.74
2023-01-17T14:13:58.502Z,54.63
2023-01-17T14:15:32.159Z,53.85
2023-01-17T14:17:27.966Z,54.46
2023-01-17T14:18:59.596Z,54.55
2023-01-17T14:20:37.280Z,55.29
2023-01-17T14:22:22.615Z,54.51
2023-01-17T14:24:04.133Z,54.95
2023-01-17T14:25:40.862Z,55.35
2023-01-17T14:27:15.349Z,55.43
2023-01-17T14:28:46.892Z,54.69
2023-01-17T14:30:20.182Z,54.61
2023-01-17T14:31:59.100Z,54.66
2023-01-17T14:33:34.477Z,54.34
2023-01-17T14:35:06.435Z,54.65
2023-01-17T14:36:38.152Z,54.57
2023-01-17T14:38:15.108Z,54.56
2023-01-17T14:39:47.990Z,54.70
2023-01-17T14:41:22.617Z,54.63
2023-01-17T14:42:58.759Z,55.00
2023-01-17T14:44:30.252Z,55.05
2023-01-17T14:46:04.079Z,54.83
2023-01-17T14:47:37.972Z,55.72
2023-01-17T14:49:21.817Z,55.59
2023-01-17T14:50:54.198Z,55.80
2023-01-17T14:52:25.760Z,55.79
2023-01-17T14:53:58.052Z,56.01
2023-01-17T14:55:29.636Z,55.76
2023-01-17T14:57:25.541Z,56.02
2023-01-17T14:59:11.244Z,55.84
2023-01-17T15:00:42.878Z,56.18
2023-01-17T15:02:16.142Z,56.02
2023-01-17T15:03:49.201Z,56.15
2023-01-17T15:05:21.982Z,56.42
2023-01-17T15:06:54.363Z,56.52
2023-01-17T15:08:35.551Z,56.61
2023-01-17T15:10:12.597Z,57.12
2023-01-17T15:11:45.489Z,57.21
2023-01-17T15:13:29.773Z,57.14
2023-01-17T15:15:22.089Z,56.99
2023-01-17T15:16:53.727Z,57.18
2023-01-17T15:18:26.841Z,56.96
2023-01-17T15:20:01.477Z,56.40
2023-01-17T15:21:35.472Z,57.02
2023-01-17T15:23:10.258Z,57.13
2023-01-17T15:24:44.579Z,56.33
2023-01-17T15:26:17.555Z,56.43
2023-01-17T15:27:49.162Z,56.26
2023-01-17T15:29:24.166Z,56.73
2023-01-17T15:31:04.241Z,56.82
2023-01-17T15:32:37.851Z,56.84
2023-01-17T15:34:14.415Z,56.85
2023-01-17T15:35:45.956Z,56.98
2023-01-17T15:37:27.983Z,56.76
2023-01-17T15:39:00.628Z,56.61
2023-01-17T15:40:33.192Z,56.49
2023-01-17T15:42:06.551Z,56.18
2023-01-17T15:43:38.990Z,56.57
2023-01-17T15:45:15.607Z,56.37
2023-01-17T15:46:47.651Z,56.50
2023-01-17T15:48:30.660Z,56.88
2023-01-17T15:50:03.231Z,56.91
2023-01-17T15:51:36.919Z,56.67
2023-01-17T15:53:29.720Z,57.25
2023-01-17T15:55:12.272Z,56.78
2023-01-17T15:56:45.544Z,56.87
2023-01-17T15:58:24.486Z,57.02
2023-01-17T15:59:58.182Z,57.19
2023-01-17T16:01:31.272Z,56.90
2023-01-17T16:03:13.333Z,57.40
2023-01-17T16:04:45.029Z,57.46
2023-01-17T16:06:28.130Z,57.36
2023-01-17T16:08:16.176Z,57.63
2023-01-17T16:09:48.229Z,58.05
2023-01-17T16:11:21.682Z,58.15
2023-01-17T16:12:53.742Z,58.40
2023-01-17T16:14:25.500Z,58.81
2023-01-17T16:16:18.180Z,59.24
2023-01-17T16:17:52.923Z,59.29
2023-01-17T16:19:24.952Z,59.57
2023-01-17T16:20:58.831Z,59.53
2023-01-17T16:22:30.344Z,59.90
2023-01-17T16:24:02.898Z,59.99
2023-01-17T16:25:34.594Z,60.18
2023-01-17T16:27:07.572Z,59.78
2023-01-17T16:28:39.121Z,60.20
2023-01-17T16:30:11.498Z,60.15
2023-01-17T16:31:42.978Z,60.34
2023-01-17T16:33:15.882Z,60.69
2023-01-17T16:34:47.345Z,60.70
2023-01-17T16:36:20.713Z,61.04
2023-01-17T16:37:53.743Z,61.10
2023-01-17T16:39:25.455Z,60.95
2023-01-17T16:40:57.013Z,60.98
2023-01-17T16:42:28.688Z,60.70
2023-01-17T16:44:01.545Z,61.02
2023-01-17T16:45:38.919Z,60.96
2023-01-17T16:47:10.444Z,61.38
2023-01-17T16:48:43.304Z,61.68
2023-01-17T16:50:15.668Z,61.82
2023-01-17T16:51:47.683Z,61.97
2023-01-17T16:53:24.314Z,62.16
2023-01-17T16:54:56.305Z,62.91
2023-01-17T16:56:27.863Z,62.79
2023-01-17T16:57:59.407Z,62.81
2023-01-17T16:59:42.558Z,62.77
2023-01-17T17:01:22.792Z,62.09
2023-01-17T17:02:54.554Z,62.70
2023-01-17T17:04:27.426Z,61.99
2023-01-17T17:05:59.656Z,61.91
2023-01-17T17:07:31.149Z,62.40
2023-01-17T17:09:02.636Z,62.20
2023-01-17T17:10:34.121Z,61.97
2023-01-17T17:12:06.124Z,62.14
2023-01-17T17:13:37.600Z,62.24
2023-01-17T17:15:10.392Z,62.75
2023-01-17T17:16:41.851Z,62.78
2023-01-17T17:18:14.871Z,63.04
2023-01-17T17:19:48.487Z,62.63
2023-01-17T17:21:19.960Z,62.64
2023-01-17T17:22:51.946Z,62.93
2023-01-17T17:24:23.603Z,63.29
2023-01-17T17:25:55.411Z,63.19
2023-01-17T17:27:27.721Z,63.31
2023-01-17T17:28:59.381Z,62.96
2023-01-17T17:30:31.578Z,63.12
2023-01-17T17:32:03.229Z,63.46
2023-01-17T17:33:35.263Z,63.34
2023-01-17T17:35:08.852Z,63.66
2023-01-17T17:36:40.807Z,62.99
2023-01-17T17:38:12.357Z,63.00
2023-01-17T17:39:45.213Z,62.89
2023-01-17T17:41:18.295Z,63.15
2023-01-17T17:42:49.852Z,63.14
2023-01-17T17:44:21.338Z,63.48
2023-01-17T17:45:52.813Z,63.50
2023-01-17T17:47:24.341Z,63.93
2023-01-17T17:48:56.308Z,64.05
2023-01-17T17:50:30.304Z,64.03
2023-01-17T17:52:05.169Z,63.85
2023-01-17T17:53:36.734Z,64.45
2023-01-17T17:55:08.325Z,64.51
2023-01-17T17:56:39.855Z,64.66
2023-01-17T17:58:11.378Z,64.88
2023-01-17T17:59:42.900Z,64.56
2023-01-17T18:01:14.479Z,65.37
2023-01-17T18:02:46.524Z,65.21
2023-01-17T18:04:18.191Z,65.25
2023-01-17T18:05:51.159Z,65.46
2023-01-17T18:07:22.667Z,65.19
2023-01-17T18:08:54.403Z,65.19
2023-01-17T18:10:25.949Z,65.22
2023-01-17T18:11:57.525Z,65.11
2023-01-17T18:13:30.048Z,65.18
2023-01-17T18:15:01.614Z,64.94
2023-01-17T18:16:35.424Z,65.46
2023-01-17T18:18:06.977Z,65.40
2023-01-17T18:19:38.929Z,65.13
2023-01-17T18:21:12.923Z,65.40
2023-01-17T18:22:44.392Z,65.32
2023-01-17T18:24:19.220Z,65.47
2023-01-17T18:25:50.886Z,65.40
2023-01-17T18:27:22.419Z,65.46
2023-01-17T18:28:54.427Z,65.62
2023-01-17T18:30:25.894Z,66.36
2023-01-17T18:31:57.423Z,66.16
2023-01-17T18:33:28.951Z,65.80
2023-01-17T18:35:00.406Z,66.10
2023-01-17T18:36:34.782Z,65.78
2023-01-17T18:38:06.365Z,66.47
2023-01-17T18:39:37.877Z,66.23
2023-01-17T18:41:10.416Z,66.08
2023-01-17T18:42:42.029Z,66.20
2023-01-17T18:44:13.503Z,66.31
2023-01-17T18:45:51.970Z,65.99
2023-01-17T18:47:23.781Z,66.75
2023-01-17T18:48:55.907Z,66.66
2023-01-17T18:50:27.949Z,66.63
2023-01-17T18:52:00.890Z,66.59
2023-01-17T18:53:33.479Z,66.83
2023-01-17T18:55:06.410Z,66.88
2023-01-17T18:56:37.950Z,66.95
2023-01-17T18:58:10.187Z,66.62
2023-01-17T18:59:43.075Z,67.30
2023-01-17T19:01:15.895Z,67.27
2023-01-17T19:02:48.617Z,67.17
2023-01-17T19:04:20.480Z,66.61
2023-01-17T19:05:52.334Z,66.98
2023-01-17T19:07:29.006Z,66.80
2023-01-17T19:09:01.203Z,66.12
2023-01-17T19:10:33.205Z,65.95
2023-01-17T19:12:05.059Z,66.00
2023-01-17T19:13:37.189Z,66.01
2023-01-17T19:15:09.197Z,66.22
2023-01-17T19:16:41.445Z,65.84
2023-01-17T19:18:13.064Z,65.84
2023-01-17T19:19:44.624Z,65.65
2023-01-17T19:21:18.659Z,65.76
2023-01-17T19:22:51.757Z,65.47
2023-01-17T19:24:24.081Z,66.33
2023-01-17T19:25:55.624Z,65.64
2023-01-17T19:27:27.176Z,65.79
2023-01-17T19:28:58.990Z,66.28
2023-01-17T19:30:30.586Z,66.13
2023-01-17T19:32:02.082Z,65.88
2023-01-17T19:33:34.111Z,65.76
2023-01-17T19:35:05.979Z,66.09
2023-01-17T19:36:37.980Z,65.95
2023-01-17T19:38:10.886Z,65.85
2023-01-17T19:39:42.325Z,66.14
2023-01-17T19:41:18.861Z,66.33
2023-01-17T19:42:50.499Z,66.31
2023-01-17T19:44:22.054Z,66.13
2023-01-17T19:45:58.461Z,66.26
2023-01-17T19:47:30.738Z,65.93
2023-01-17T19:49:02.659Z,66.15
2023-01-17T19:50:34.302Z,65.81
2023-01-17T19:52:05.875Z,65.87
2023-01-17T19:53:39.129Z,65.94
2023-01-17T19:55:10.622Z,66.27
2023-01-17T19:56:42.123Z,65.99
2023-01-17T19:58:13.654Z,65.67
2023-01-17T19:59:45.147Z,65.85
2023-01-17T20:01:17.779Z,65.92
2023-01-17T20:02:49.314Z,66.16
2023-01-17T20:04:21.099Z,65.96
2023-01-17T20:05:55.744Z,66.30
2023-01-17T20:07:27.542Z,66.44
2023-01-17T20:09:00.728Z,65.93
2023-01-17T20:10:32.421Z,66.11
2023-01-17T20:12:04.143Z,66.33
2023-01-17T20:13:35.688Z,66.20
2023-01-17T20:15:07.855Z,65.95
2023-01-17T20:16:39.420Z,66.33
2023-01-17T20:18:12.592Z,66.15
2023-01-17T20:19:46.287Z,66.40
2023-01-17T20:21:18.652Z,66.17
2023-01-17T20:22:50.219Z,66.27
2023-01-17T20:24:24.162Z,65.96